Time;durP1;ratioP1;P1;durP2;ratioP2;P2;SDS_P1;SDS_P2;PMS_P1;PMS_P2;Temp;Humidity;BMP_temperature;BMP_pressure;BME280_temperature;BME280_humidity;BME280_pressure;Samples;Min_cycle;Max_cycle;Signal;HPM_P1;HPM_P2
2022/03/16 00:00:10;;;;;;;20.05;11.57;;;;;;;4.94;100.00;97265.75;4976424;28;20043;-68
2022/03/16 00:02:36;;;;;;;27.23;12.73;;;;;;;5.00;100.00;97265.59;4979552;28;20046;-66
2022/03/16 00:05:02;;;;;;;19.85;12.10;;;;;;;4.69;100.00;97266.47;4989370;28;20069;-66
2022/03/16 00:07:27;;;;;;;20.80;12.63;;;;;;;4.55;100.00;97266.56;4995729;28;20046;-67
2022/03/16 00:09:53;;;;;;;21.85;12.95;;;;;;;4.50;100.00;97262.09;4988179;28;20399;-66
2022/03/16 00:12:19;;;;;;;22.60;13.73;;;;;;;4.39;100.00;97261.56;4973483;28;20157;-66
2022/03/16 00:14:45;;;;;;;23.50;13.07;;;;;;;4.40;100.00;97265.09;4981494;28;20045;-67
2022/03/16 00:17:11;;;;;;;24.27;12.68;;;;;;;4.40;100.00;97263.16;4974923;28;20499;-65
2022/03/16 00:19:37;;;;;;;22.40;13.10;;;;;;;4.55;100.00;97258.44;4984718;28;20042;-67
2022/03/16 00:22:04;;;;;;;21.75;11.93;;;;;;;4.58;100.00;97255.91;4989497;28;20053;-66
2022/03/16 00:24:30;;;;;;;21.13;13.45;;;;;;;4.67;100.00;97242.34;4999899;28;20407;-67
2022/03/16 00:26:56;;;;;;;23.00;13.48;;;;;;;4.71;100.00;97239.81;5000153;28;20188;-66
2022/03/16 00:29:22;;;;;;;26.83;13.55;;;;;;;4.86;100.00;97250.25;4994532;28;20061;-68
2022/03/16 00:31:48;;;;;;;25.85;13.95;;;;;;;4.86;100.00;97244.81;4991219;28;20050;-68
2022/03/16 00:34:14;;;;;;;22.65;14.10;;;;;;;4.91;100.00;97249.28;4976582;28;20062;-69
2022/03/16 00:36:39;;;;;;;22.92;13.48;;;;;;;4.89;100.00;97252.31;4988280;28;20046;-69
2022/03/16 00:39:04;;;;;;;22.08;12.57;;;;;;;4.80;100.00;97248.78;4971976;28;20522;-64
2022/03/16 00:41:31;;;;;;;22.48;12.05;;;;;;;4.66;100.00;97253.53;4992450;28;20050;-67
2022/03/16 00:43:57;;;;;;;23.45;13.23;;;;;;;4.59;100.00;97254.78;5000123;28;20415;-65
2022/03/16 00:46:22;;;;;;;23.92;13.40;;;;;;;4.51;100.00;97241.19;4981924;28;20058;-68
2022/03/16 00:48:48;;;;;;;20.77;12.30;;;;;;;4.43;100.00;97248.19;4988597;28;20065;-69
2022/03/16 00:51:13;;;;;;;22.98;13.63;;;;;;;4.44;100.00;97248.97;4990200;28;20053;-69
2022/03/16 00:53:40;;;;;;;23.13;13.48;;;;;;;4.62;100.00;97250.63;5002902;28;20124;-66
2022/03/16 00:56:07;;;;;;;22.30;13.43;;;;;;;4.59;100.00;97252.06;4997554;28;20695;-68
2022/03/16 00:58:33;;;;;;;22.80;12.73;;;;;;;4.53;100.00;97242.47;5002670;28;20053;-68
2022/03/16 01:00:59;;;;;;;28.80;13.65;;;;;;;4.38;100.00;97253.75;5003116;28;20568;-68
2022/03/16 01:03:26;;;;;;;20.05;12.82;;;;;;;4.21;100.00;97249.03;4985328;28;20193;-69
2022/03/16 01:05:51;;;;;;;21.92;12.82;;;;;;;4.18;100.00;97249.66;4990965;28;20034;-67
2022/03/16 01:08:17;;;;;;;25.33;13.75;;;;;;;4.18;100.00;97250.47;4979378;28;20053;-67
2022/03/16 01:10:42;;;;;;;21.05;12.18;;;;;;;4.32;100.00;97244.13;4983887;28;20061;-67
2022/03/16 01:13:08;;;;;;;22.15;13.30;;;;;;;4.41;100.00;97244.97;4978660;28;20047;-67
2022/03/16 01:15:33;;;;;;;22.70;12.23;;;;;;;4.44;100.00;97243.56;4981830;28;20138;-67
2022/03/16 01:17:59;;;;;;;22.13;13.18;;;;;;;4.44;100.00;97240.84;4991180;28;20483;-67
2022/03/16 01:20:24;;;;;;;21.70;13.00;;;;;;;4.27;100.00;97244.25;4979582;28;20476;-66
2022/03/16 01:22:50;;;;;;;23.02;13.20;;;;;;;4.16;100.00;97232.88;4993056;28;20197;-66
2022/03/16 01:25:15;;;;;;;23.08;13.50;;;;;;;4.12;100.00;97240.84;4984340;28;20604;-63
2022/03/16 01:27:41;;;;;;;22.35;11.68;;;;;;;4.28;100.00;97235.03;4986701;28;20571;-67
2022/03/16 01:30:07;;;;;;;22.08;12.40;;;;;;;4.31;100.00;97235.22;4993270;28;20105;-68
2022/03/16 01:32:32;;;;;;;22.20;12.60;;;;;;;4.32;100.00;97231.41;4993526;28;20042;-68
2022/03/16 01:34:58;;;;;;;21.27;12.68;;;;;;;4.31;100.00;97234.41;4992996;28;20034;-67
2022/03/16 01:37:23;;;;;;;20.52;12.27;;;;;;;4.20;100.00;97229.25;4993968;28;20518;-68
2022/03/16 01:39:49;;;;;;;23.23;12.32;;;;;;;4.21;100.00;97230.03;4993971;28;20061;-69
2022/03/16 01:42:14;;;;;;;20.80;12.57;;;;;;;4.28;100.00;97229.59;4956244;28;20030;-68
2022/03/16 01:44:58;;;;;;;24.13;12.15;;;;;;;4.17;100.00;97238.00;4974347;28;20022;-67
2022/03/16 01:47:25;;;;;;;28.60;12.93;;;;;;;4.16;100.00;97247.25;4973987;28;20027;-68
2022/03/16 01:49:54;;;;;;;21.88;12.65;;;;;;;4.19;100.00;97243.91;4973742;28;20049;-69
2022/03/16 01:52:22;;;;;;;27.37;13.50;;;;;;;4.14;100.00;97243.25;4974374;28;20073;-70
2022/03/16 01:54:48;;;;;;;25.50;14.90;;;;;;;4.07;100.00;97242.88;4982060;28;20058;-69
2022/03/16 01:57:15;;;;;;;21.83;12.25;;;;;;;3.95;100.00;97246.19;4991146;28;20037;-70
2022/03/16 01:59:42;;;;;;;24.85;13.27;;;;;;;3.88;100.00;97243.91;4986832;28;20039;-68
2022/03/16 02:02:09;;;;;;;23.83;13.85;;;;;;;3.85;100.00;97241.03;4973310;28;20435;-70
2022/03/16 02:04:35;;;;;;;22.30;12.90;;;;;;;3.91;100.00;97245.22;4984243;28;20116;-67
2022/03/16 02:07:00;;;;;;;21.55;12.75;;;;;;;3.95;100.00;97229.94;4992750;28;20035;-68
2022/03/16 02:09:26;;;;;;;27.08;12.10;;;;;;;3.87;100.00;97238.78;4992982;28;20041;-68
2022/03/16 02:11:52;;;;;;;18.15;10.93;;;;;;;3.85;100.00;97233.69;4992790;28;20072;-70
2022/03/16 02:14:20;;;;;;;22.17;13.15;;;;;;;3.88;100.00;97238.50;4993015;28;20039;-68
2022/03/16 02:16:46;;;;;;;22.60;12.55;;;;;;;3.93;100.00;97234.88;4992460;28;20035;-66
2022/03/16 02:19:12;;;;;;;22.75;11.93;;;;;;;3.98;100.00;97232.00;4992070;28;20045;-66
2022/03/16 02:21:40;;;;;;;20.73;12.63;;;;;;;4.11;100.00;97233.84;4992773;28;20035;-65
2022/03/16 02:24:06;;;;;;;26.17;12.27;;;;;;;4.17;100.00;97237.22;4993001;28;20478;-68
2022/03/16 02:26:32;;;;;;;25.40;12.70;;;;;;;4.14;100.00;97235.13;4990881;28;20411;-68
2022/03/16 02:28:57;;;;;;;19.98;12.20;;;;;;;4.08;100.00;97234.44;4977787;28;20027;-67
2022/03/16 02:31:23;;;;;;;21.98;11.93;;;;;;;4.06;100.00;97236.69;4973061;28;20062;-67
2022/03/16 02:33:49;;;;;;;26.95;15.32;;;;;;;3.99;100.00;97239.81;4972935;28;20031;-69
2022/03/16 02:36:15;;;;;;;22.80;12.48;;;;;;;3.90;100.00;97249.03;4972570;28;20034;-67
2022/03/16 02:38:40;;;;;;;18.67;13.13;;;;;;;3.97;100.00;97247.47;4972589;28;20125;-67
2022/03/16 02:41:06;;;;;;;20.42;13.55;;;;;;;3.87;100.00;97250.47;4972529;28;20109;-68
2022/03/16 02:43:31;;;;;;;23.75;12.82;;;;;;;3.86;100.00;97250.75;4983820;28;20034;-68
2022/03/16 02:45:57;;;;;;;21.48;12.43;;;;;;;3.87;100.00;97245.03;5000954;28;20046;-67
2022/03/16 02:48:22;;;;;;;23.88;13.52;;;;;;;3.76;100.00;97258.03;5000856;28;20038;-67
2022/03/16 02:50:49;;;;;;;20.92;12.65;;;;;;;3.79;100.00;97251.97;4994468;28;20054;-67
2022/03/16 02:53:18;;;;;;;17.38;11.48;;;;;;;3.84;100.00;97248.34;4992025;28;20101;-66
2022/03/16 02:55:44;;;;;;;22.23;12.52;;;;;;;3.92;100.00;97261.13;4991760;28;20030;-67
2022/03/16 02:58:11;;;;;;;19.00;11.43;;;;;;;3.90;100.00;97265.28;4993172;28;20038;-67
2022/03/16 03:00:36;;;;;;;20.95;12.15;;;;;;;3.89;100.00;97258.25;5002445;28;20041;-67
2022/03/16 03:03:02;;;;;;;19.52;11.50;;;;;;;3.80;100.00;97258.22;4991976;28;20030;-68
2022/03/16 03:05:27;;;;;;;21.75;12.13;;;;;;;3.46;100.00;97262.25;5000045;28;20641;-68
2022/03/16 03:07:53;;;;;;;21.08;12.25;;;;;;;3.56;100.00;97269.34;4997313;28;20030;-68
2022/03/16 03:10:18;;;;;;;20.90;12.05;;;;;;;3.65;100.00;97270.22;5011416;28;20548;-68
2022/03/16 03:12:44;;;;;;;19.50;11.77;;;;;;;3.70;100.00;97267.38;4994171;28;20038;-68
2022/03/16 03:15:11;;;;;;;25.10;13.23;;;;;;;3.76;100.00;97270.75;5011596;28;20060;-69
2022/03/16 03:17:37;;;;;;;20.25;12.65;;;;;;;3.71;100.00;97271.69;4996430;28;20121;-70
2022/03/16 03:20:03;;;;;;;19.65;12.88;;;;;;;3.74;100.00;97272.97;4999998;28;20113;-68
2022/03/16 03:22:28;;;;;;;21.70;12.52;;;;;;;3.68;100.00;97272.31;5002729;28;20133;-69
2022/03/16 03:24:55;;;;;;;19.20;12.80;;;;;;;3.66;100.00;97271.03;5020379;28;20101;-68
2022/03/16 03:27:21;;;;;;;24.08;12.90;;;;;;;3.67;100.00;97269.91;5018671;28;20041;-69
2022/03/16 03:29:46;;;;;;;19.58;13.18;;;;;;;3.73;100.00;97272.19;4996616;28;20042;-70
2022/03/16 03:32:12;;;;;;;20.73;13.30;;;;;;;3.75;100.00;97272.69;5002114;28;20042;-70
2022/03/16 03:34:37;;;;;;;24.13;13.32;;;;;;;3.72;100.00;97270.56;5012136;28;20029;-70
2022/03/16 03:37:03;;;;;;;24.92;12.55;;;;;;;3.71;100.00;97268.16;5001229;28;20038;-69
2022/03/16 03:39:28;;;;;;;20.52;12.15;;;;;;;3.73;100.00;97272.19;4974243;28;20041;-68
2022/03/16 03:41:54;;;;;;;22.83;12.10;;;;;;;3.74;100.00;97268.34;4974055;28;20483;-68
2022/03/16 03:44:19;;;;;;;19.83;12.52;;;;;;;3.80;100.00;97263.63;4995012;28;20034;-69
2022/03/16 03:46:45;;;;;;;21.67;11.98;;;;;;;3.64;100.00;97260.50;5002946;28;20482;-69
2022/03/16 03:49:10;;;;;;;22.13;12.43;;;;;;;3.70;100.00;97270.09;4986728;28;20074;-68
2022/03/16 03:51:35;;;;;;;23.90;12.93;;;;;;;3.67;100.00;97265.28;4998619;28;20026;-68
2022/03/16 03:54:01;;;;;;;21.23;12.73;;;;;;;3.67;100.00;97261.78;5024517;28;20064;-67
2022/03/16 03:56:26;;;;;;;21.83;12.95;;;;;;;3.54;100.00;97264.22;5023817;28;20064;-68
2022/03/16 03:58:52;;;;;;;22.50;13.07;;;;;;;3.46;100.00;97267.69;5013520;28;20033;-68
2022/03/16 04:01:17;;;;;;;23.95;12.57;;;;;;;3.39;100.00;97270.00;5011525;28;20386;-69
2022/03/16 04:03:43;;;;;;;23.98;13.50;;;;;;;3.28;100.00;97272.16;4998047;23;20042;-65
2022/03/16 04:06:10;;;;;;;21.42;12.93;;;;;;;3.25;100.00;97275.47;4925053;28;20054;-66
2022/03/16 04:08:36;;;;;;;25.83;14.60;;;;;;;3.20;100.00;97275.56;4978380;28;20034;-66
2022/03/16 04:11:01;;;;;;;32.45;15.90;;;;;;;3.25;100.00;97276.25;4978589;28;20057;-67
2022/03/16 04:13:27;;;;;;;27.25;14.45;;;;;;;3.30;100.00;97275.34;4953411;28;20082;-67
2022/03/16 04:15:52;;;;;;;24.23;14.55;;;;;;;3.28;100.00;97277.56;4976984;28;20042;-66
2022/03/16 04:18:17;;;;;;;26.27;14.35;;;;;;;3.10;100.00;97279.31;4959137;28;20038;-66
2022/03/16 04:20:43;;;;;;;25.30;14.70;;;;;;;2.90;100.00;97280.53;4970484;29;20081;-68
2022/03/16 04:23:08;;;;;;;29.27;16.38;;;;;;;2.95;100.00;97282.31;4954555;29;20037;-67
2022/03/16 04:25:34;;;;;;;25.92;15.32;;;;;;;3.01;100.00;97290.03;4965217;29;20547;-67
2022/03/16 04:27:59;;;;;;;36.30;20.13;;;;;;;2.95;100.00;97290.44;4960078;28;20031;-66
2022/03/16 04:30:24;;;;;;;28.73;16.75;;;;;;;2.87;100.00;97286.56;4951773;29;20689;-65
2022/03/16 04:32:52;;;;;;;27.25;16.73;;;;;;;2.89;100.00;97288.97;4940839;28;20033;-67
2022/03/16 04:35:18;;;;;;;27.48;15.95;;;;;;;2.87;100.00;97289.25;4980214;28;20030;-64
2022/03/16 04:37:44;;;;;;;31.98;16.80;;;;;;;2.83;100.00;97296.38;4962386;28;20031;-67
2022/03/16 04:40:10;;;;;;;32.20;18.38;;;;;;;2.81;100.00;97293.97;4946836;28;20085;-66
2022/03/16 04:42:35;;;;;;;28.67;16.13;;;;;;;2.68;100.00;97295.59;4954471;28;20037;-66
2022/03/16 04:45:01;;;;;;;29.50;16.15;;;;;;;2.69;100.00;97296.38;4955726;28;20066;-64
2022/03/16 04:47:26;;;;;;;27.77;15.88;;;;;;;2.46;100.00;97292.75;4980809;28;20034;-64
2022/03/16 04:49:51;;;;;;;30.23;15.25;;;;;;;2.48;100.00;97294.06;4980406;28;20503;-66
2022/03/16 04:52:17;;;;;;;28.55;16.08;;;;;;;2.53;100.00;97298.56;4983707;28;20428;-67
2022/03/16 04:54:42;;;;;;;30.80;16.63;;;;;;;2.64;100.00;97296.47;4983569;28;20036;-66
2022/03/16 04:57:08;;;;;;;27.73;15.95;;;;;;;2.82;100.00;97300.19;4974938;28;20038;-66
2022/03/16 04:59:33;;;;;;;29.63;16.17;;;;;;;2.96;100.00;97295.56;4973881;28;20026;-66
2022/03/16 05:01:58;;;;;;;27.60;15.45;;;;;;;3.04;100.00;97296.75;4982146;28;20034;-66
2022/03/16 05:04:24;;;;;;;28.35;15.13;;;;;;;3.03;100.00;97295.16;4983622;28;20057;-67
2022/03/16 05:06:49;;;;;;;25.83;15.65;;;;;;;2.98;100.00;97298.75;4977333;28;20403;-65
2022/03/16 05:09:14;;;;;;;27.77;16.27;;;;;;;2.99;100.00;97299.53;4960460;28;20124;-67
2022/03/16 05:11:42;;;;;;;34.20;18.98;;;;;;;2.96;100.00;97306.38;4953786;28;20038;-66
2022/03/16 05:14:09;;;;;;;30.50;16.35;;;;;;;2.90;100.00;97310.31;4953065;28;20058;-65
2022/03/16 05:16:35;;;;;;;29.42;16.73;;;;;;;2.91;100.00;97308.41;4978235;28;20580;-66
2022/03/16 05:19:00;;;;;;;26.55;16.60;;;;;;;2.86;100.00;97312.00;4960914;28;20041;-66
2022/03/16 05:21:26;;;;;;;36.63;18.25;;;;;;;2.84;100.00;97314.19;4974688;28;20579;-66
2022/03/16 05:23:51;;;;;;;37.88;18.77;;;;;;;2.89;100.00;97319.50;4966510;28;20256;-65
2022/03/16 05:26:17;;;;;;;30.08;17.08;;;;;;;3.02;100.00;97317.91;4977734;28;20080;-65
2022/03/16 05:28:42;;;;;;;29.65;16.75;;;;;;;2.95;100.00;97314.78;4978073;28;20031;-66
2022/03/16 05:31:08;;;;;;;31.52;17.60;;;;;;;2.90;100.00;97318.41;4980111;28;20027;-66
2022/03/16 05:33:33;;;;;;;30.73;17.77;;;;;;;2.76;100.00;97329.25;4978931;28;20037;-66
2022/03/16 05:35:59;;;;;;;35.00;18.75;;;;;;;2.75;100.00;97324.91;4979155;28;20034;-65
2022/03/16 05:38:24;;;;;;;35.70;19.00;;;;;;;2.71;100.00;97329.31;4971597;28;20035;-65
2022/03/16 05:40:49;;;;;;;32.30;17.05;;;;;;;2.73;100.00;97331.75;4965821;28;20038;-65
2022/03/16 05:43:15;;;;;;;34.08;16.35;;;;;;;2.75;100.00;97322.22;4980016;28;20095;-64
2022/03/16 05:45:40;;;;;;;25.17;15.75;;;;;;;2.75;100.00;97333.03;4981118;28;20026;-65
2022/03/16 05:48:06;;;;;;;28.45;15.73;;;;;;;2.87;100.00;97329.84;4960718;28;20058;-69
2022/03/16 05:50:31;;;;;;;24.85;14.63;;;;;;;2.95;100.00;97326.41;4978048;28;20023;-68
2022/03/16 05:52:58;;;;;;;22.42;14.52;;;;;;;3.01;100.00;97336.03;4933594;29;20038;-68
2022/03/16 05:55:23;;;;;;;23.48;13.50;;;;;;;3.03;100.00;97341.16;4940202;29;20076;-66
2022/03/16 05:57:50;;;;;;;23.63;13.15;;;;;;;3.07;100.00;97334.03;4941678;29;20031;-67
2022/03/16 06:00:20;;;;;;;19.55;12.88;;;;;;;3.10;100.00;97336.16;4951287;28;20035;-68
2022/03/16 06:02:47;;;;;;;20.95;13.05;;;;;;;3.20;100.00;97343.25;4955646;28;20514;-67
2022/03/16 06:05:14;;;;;;;24.95;12.90;;;;;;;3.10;100.00;97338.03;4934475;29;20035;-65
2022/03/16 06:07:40;;;;;;;23.75;13.32;;;;;;;2.89;100.00;97343.06;4938225;29;20031;-66
2022/03/16 06:10:08;;;;;;;19.77;12.77;;;;;;;2.89;100.00;97338.44;4973131;28;20058;-65
2022/03/16 06:12:48;;;;;;;25.90;12.75;;;;;;;3.10;100.00;97340.72;4936371;28;20027;-66
2022/03/16 06:15:13;;;;;;;22.67;12.75;;;;;;;3.29;100.00;97341.41;4959478;28;20043;-67
2022/03/16 06:17:39;;;;;;;21.20;13.50;;;;;;;3.50;100.00;97349.91;4958721;29;20479;-68
2022/03/16 06:20:04;;;;;;;20.90;12.57;;;;;;;3.68;100.00;97348.16;4959452;29;20109;-68
2022/03/16 06:22:30;;;;;;;21.25;12.02;;;;;;;3.73;100.00;97348.06;4943050;29;20143;-67
2022/03/16 06:24:55;;;;;;;20.98;12.45;;;;;;;3.87;100.00;97358.03;4949077;28;20038;-68
2022/03/16 06:27:21;;;;;;;18.73;11.63;;;;;;;3.93;100.00;97349.47;4987220;28;20035;-68
2022/03/16 06:29:46;;;;;;;20.02;12.60;;;;;;;4.02;100.00;97357.69;4988169;28;20037;-67
2022/03/16 06:32:11;;;;;;;20.50;10.80;;;;;;;4.29;100.00;97353.25;4963721;28;20031;-68
2022/03/16 06:34:37;;;;;;;18.42;10.88;;;;;;;4.45;100.00;97350.94;4944086;28;20097;-69
2022/03/16 06:37:02;;;;;;;20.15;11.07;;;;;;;4.60;100.00;97340.47;4978970;28;20042;-63
2022/03/16 06:39:28;;;;;;;16.90;10.68;;;;;;;4.87;100.00;97341.41;4956070;28;20131;-66
2022/03/16 06:41:53;;;;;;;19.50;11.25;;;;;;;5.23;100.00;97353.97;4948639;29;20031;-68
2022/03/16 06:44:19;;;;;;;15.70;9.20;;;;;;;5.52;100.00;97353.38;4952798;28;20037;-66
2022/03/16 06:46:46;;;;;;;18.90;9.57;;;;;;;5.82;100.00;97347.38;4969771;28;20032;-67
2022/03/16 06:49:11;;;;;;;17.38;9.48;;;;;;;6.09;100.00;97357.16;4962188;28;20038;-66
2022/03/16 06:51:37;;;;;;;16.35;9.60;;;;;;;6.38;100.00;97359.19;4967514;28;20053;-66
2022/03/16 06:54:02;;;;;;;21.60;10.23;;;;;;;6.63;100.00;97362.97;4959929;29;20089;-65
2022/03/16 06:56:28;;;;;;;14.65;9.93;;;;;;;6.93;100.00;97362.22;4950552;29;20035;-69
2022/03/16 06:58:53;;;;;;;15.95;9.90;;;;;;;6.61;99.74;97367.94;4973351;28;20039;-68
2022/03/16 07:01:18;;;;;;;22.58;13.15;;;;;;;6.45;100.00;97367.66;4952537;29;20036;-68
2022/03/16 07:03:44;;;;;;;25.65;17.55;;;;;;;6.22;100.00;97367.03;4939642;29;20075;-68
2022/03/16 07:06:10;;;;;;;22.80;14.55;;;;;;;6.08;100.00;97359.03;4937375;29;20028;-65
2022/03/16 07:08:35;;;;;;;19.98;12.07;;;;;;;6.06;100.00;97360.50;4937578;29;20507;-66
2022/03/16 07:11:01;;;;;;;15.07;10.00;;;;;;;6.14;100.00;97359.69;4966596;28;20125;-67
2022/03/16 07:13:26;;;;;;;18.52;9.75;;;;;;;6.35;100.00;97362.53;4961301;28;20054;-68
2022/03/16 07:15:51;;;;;;;19.08;10.50;;;;;;;7.04;100.00;97364.28;4959267;28;20197;-67
2022/03/16 07:18:19;;;;;;;15.95;9.32;;;;;;;7.85;100.00;97364.28;4950297;28;20046;-67
2022/03/16 07:20:47;;;;;;;16.55;9.10;;;;;;;8.40;97.63;97367.81;4968265;28;20026;-68
2022/03/16 07:23:15;;;;;;;14.43;9.50;;;;;;;8.99;93.46;97367.53;4952679;28;20058;-69
2022/03/16 07:25:46;;;;;;;18.45;9.88;;;;;;;9.34;90.00;97372.56;4966727;28;20114;-68
2022/03/16 07:28:11;;;;;;;19.60;10.95;;;;;;;9.54;88.01;97361.84;4965149;28;20030;-66
2022/03/16 07:30:38;;;;;;;19.42;11.23;;;;;;;8.99;93.25;97362.06;4965445;28;20534;-68
2022/03/16 07:33:04;;;;;;;17.92;9.93;;;;;;;9.18;94.79;97367.00;4967347;28;20067;-68
2022/03/16 07:35:30;;;;;;;17.02;9.65;;;;;;;10.06;88.88;97363.78;4922702;29;20119;-68
2022/03/16 07:37:57;;;;;;;18.70;9.63;;;;;;;10.83;86.36;97357.31;4941957;29;20032;-68
2022/03/16 07:40:24;;;;;;;16.67;9.63;;;;;;;11.39;81.90;97355.53;4936687;29;20040;-68
2022/03/16 07:42:51;;;;;;;24.27;10.00;;;;;;;11.38;78.47;97356.69;4935268;29;20387;-66
2022/03/16 07:45:18;;;;;;;20.55;11.13;;;;;;;11.89;79.09;97348.44;4952166;28;20046;-65
2022/03/16 07:47:48;;;;;;;21.63;10.98;;;;;;;12.16;77.64;97343.94;4967760;28;20391;-66
2022/03/16 07:50:16;;;;;;;26.30;11.55;;;;;;;12.45;76.04;97340.97;4975436;28;20434;-67
2022/03/16 07:52:42;;;;;;;21.77;11.52;;;;;;;12.84;74.30;97343.63;4949785;28;20042;-68
2022/03/16 07:55:09;;;;;;;21.38;11.52;;;;;;;12.79;73.30;97344.75;4969094;28;20495;-68
2022/03/16 07:57:38;;;;;;;24.45;10.65;;;;;;;12.96;73.87;97344.25;4976936;28;20047;-70
2022/03/16 08:00:05;;;;;;;20.25;11.18;;;;;;;12.68;71.82;97350.03;4969619;28;20499;-71
2022/03/16 08:02:30;;;;;;;19.50;10.57;;;;;;;13.12;73.85;97346.09;4968726;28;20616;-68
2022/03/16 08:05:00;;;;;;;19.58;11.10;;;;;;;13.71;70.55;97352.91;4951515;28;20126;-68
2022/03/16 08:07:29;;;;;;;18.10;9.90;;;;;;;13.71;68.79;97349.38;4963300;28;20043;-67
2022/03/16 08:09:56;;;;;;;19.30;11.70;;;;;;;13.71;70.33;97341.91;4950577;28;20047;-66
2022/03/16 08:12:22;;;;;;;21.92;10.27;;;;;;;14.38;68.96;97356.16;4948081;28;20039;-66
2022/03/16 08:14:47;;;;;;;19.20;10.63;;;;;;;14.41;67.38;97345.16;4977669;28;20109;-68
2022/03/16 08:17:13;;;;;;;22.15;11.43;;;;;;;14.24;67.97;97346.56;4942913;28;20073;-67
2022/03/16 08:19:38;;;;;;;18.88;10.40;;;;;;;14.09;69.34;97342.81;4956841;28;20054;-68
2022/03/16 08:22:04;;;;;;;18.25;11.10;;;;;;;14.20;68.64;97348.47;4962773;28;20130;-67
2022/03/16 08:24:29;;;;;;;22.35;11.38;;;;;;;14.76;67.32;97335.72;4965408;28;20074;-67
2022/03/16 08:26:55;;;;;;;20.17;10.65;;;;;;;15.48;65.28;97344.63;4948160;28;20053;-66
2022/03/16 08:29:20;;;;;;;18.23;11.68;;;;;;;15.85;61.88;97346.47;4960479;28;20073;-69
2022/03/16 08:31:45;;;;;;;19.10;10.95;;;;;;;15.98;62.10;97342.19;4964381;28;20520;-69
2022/03/16 08:34:11;;;;;;;18.48;11.40;;;;;;;16.49;61.40;97345.19;4959353;28;20193;-67
2022/03/16 08:36:38;;;;;;;21.40;11.05;;;;;;;16.46;58.56;97344.00;4965153;28;20046;-67
2022/03/16 08:39:05;;;;;;;22.58;11.80;;;;;;;16.86;59.77;97349.66;4963947;28;20049;-68
2022/03/16 08:41:32;;;;;;;25.88;11.98;;;;;;;16.94;58.91;97345.72;4967672;28;20115;-67
2022/03/16 08:43:58;;;;;;;21.60;12.82;;;;;;;16.89;59.57;97344.13;4965763;28;20404;-69
2022/03/16 08:46:24;;;;;;;21.15;12.52;;;;;;;16.41;60.56;97342.38;4942750;28;20744;-66
2022/03/16 08:48:49;;;;;;;24.73;12.50;;;;;;;16.75;58.20;97339.34;4964923;28;20047;-68
2022/03/16 08:51:14;;;;;;;25.08;12.50;;;;;;;17.02;58.89;97336.25;4958612;28;20495;-67
2022/03/16 08:53:41;;;;;;;23.25;12.30;;;;;;;17.25;58.34;97337.81;4963325;28;20082;-67
2022/03/16 08:56:06;;;;;;;21.00;12.05;;;;;;;15.66;64.88;97342.78;4959018;28;20046;-67
2022/03/16 08:58:33;;;;;;;22.80;11.40;;;;;;;16.33;61.89;97331.69;4963628;28;20073;-67
2022/03/16 09:00:58;;;;;;;23.88;12.50;;;;;;;16.06;62.91;97331.97;4964016;28;20547;-67
2022/03/16 09:03:23;;;;;;;21.45;11.95;;;;;;;16.34;62.51;97325.78;4943052;28;20062;-68
2022/03/16 09:05:49;;;;;;;21.80;12.77;;;;;;;16.18;63.55;97325.31;4954483;28;20050;-68
2022/03/16 09:08:14;;;;;;;22.30;12.20;;;;;;;17.19;60.81;97329.91;4962984;28;20408;-68
2022/03/16 09:10:40;;;;;;;29.30;12.88;;;;;;;15.30;66.66;97336.19;4968809;28;20134;-67
2022/03/16 09:13:06;;;;;;;21.83;12.25;;;;;;;14.93;71.24;97328.00;4961250;28;20054;-68
2022/03/16 09:15:32;;;;;;;22.50;11.95;;;;;;;15.36;68.11;97323.66;4967605;28;20043;-70
2022/03/16 09:17:59;;;;;;;24.85;12.27;;;;;;;16.66;65.22;97316.00;4966594;28;20574;-70
2022/03/16 09:20:25;;;;;;;22.17;11.77;;;;;;;17.96;59.69;97314.81;4962875;28;20062;-69
2022/03/16 09:22:50;;;;;;;21.88;10.90;;;;;;;18.90;55.56;97304.84;4968661;28;20046;-68
2022/03/16 09:25:15;;;;;;;17.88;10.60;;;;;;;19.29;54.49;97303.78;4970845;28;20039;-68
2022/03/16 09:27:41;;;;;;;18.42;10.50;;;;;;;17.34;61.53;97303.03;4983856;28;20034;-68
2022/03/16 09:30:07;;;;;;;18.13;9.23;;;;;;;16.16;61.57;97303.59;4976084;28;20035;-67
2022/03/16 09:32:33;;;;;;;19.25;7.53;;;;;;;14.55;63.52;97308.72;4965906;28;20086;-69
2022/03/16 09:34:59;;;;;;;14.07;7.43;;;;;;;13.29;68.60;97309.00;4967264;28;20043;-67
2022/03/16 09:37:25;;;;;;;16.45;8.43;;;;;;;13.93;68.63;97300.91;4961456;28;20539;-68
2022/03/16 09:39:50;;;;;;;15.13;7.75;;;;;;;14.13;66.57;97291.34;4966824;28;20101;-68
2022/03/16 09:42:19;;;;;;;16.73;7.43;;;;;;;13.90;65.63;97293.38;4961486;28;20394;-68
2022/03/16 09:44:46;;;;;;;13.98;5.75;;;;;;;13.44;65.40;97299.06;4967336;28;20045;-68
2022/03/16 09:47:12;;;;;;;17.88;5.10;;;;;;;13.54;61.63;97290.16;4962223;28;20081;-67
2022/03/16 09:49:38;;;;;;;16.20;5.78;;;;;;;14.07;61.67;97286.53;4965768;28;20050;-66
2022/03/16 09:52:07;;;;;;;23.52;7.30;;;;;;;14.10;65.43;97283.81;4961545;28;20042;-70
2022/03/16 09:54:33;;;;;;;20.88;9.05;;;;;;;13.61;64.63;97281.22;4947784;28;20170;-68
2022/03/16 09:56:59;;;;;;;14.40;7.32;;;;;;;14.16;65.50;97287.03;4965897;28;20504;-68
2022/03/16 09:59:24;;;;;;;15.10;6.85;;;;;;;14.44;65.29;97281.03;4964709;28;20618;-69
2022/03/16 10:02:09;;;;;;;18.63;7.28;;;;;;;14.88;60.87;97277.53;4968492;28;20613;-68
2022/03/16 10:04:36;;;;;;;18.50;6.18;;;;;;;13.82;64.03;97272.44;4984430;23;20149;-64
2022/03/16 10:07:04;;;;;;;18.60;6.75;;;;;;;14.04;65.07;97271.53;4962625;28;20058;-66
2022/03/16 10:15:05;;;;;;;16.58;7.50;;;;;;;14.65;65.15;97263.16;4960239;28;20046;-65
2022/03/16 10:17:43;;;;;;;19.85;9.60;;;;;;;14.44;66.83;97263.69;4965238;28;20050;-66
2022/03/16 10:20:29;;;;;;;23.02;10.65;;;;;;;14.78;66.32;97247.91;4947962;28;20046;-64
2022/03/16 10:23:18;;;;;;;24.98;9.45;;;;;;;14.62;66.64;97259.19;4948044;28;20085;-64
2022/03/16 10:25:46;;;;;;;23.73;9.15;;;;;;;14.88;63.50;97254.69;4979274;28;20119;-64
2022/03/16 10:28:17;;;;;;;22.75;9.18;;;;;;;15.54;62.16;97249.25;4969006;28;20048;-64
2022/03/16 10:30:58;;;;;;;22.30;10.63;;;;;;;16.19;61.42;97249.53;4970656;28;20053;-64
2022/03/16 10:33:43;;;;;;;21.35;9.93;;;;;;;16.54;61.54;97250.78;4961217;28;20622;-65
2022/03/16 10:36:11;;;;;;;18.38;9.20;;;;;;;16.55;60.44;97247.63;4960275;28;20039;-65
2022/03/16 10:38:45;;;;;;;23.05;9.98;;;;;;;15.98;60.99;97244.72;4971221;28;20572;-64
2022/03/16 10:47:01;;;;;;;20.15;9.32;;;;;;;16.74;58.41;97246.47;4967885;28;20030;-64
2022/03/16 10:49:32;;;;;;;22.17;11.90;;;;;;;14.89;65.03;97250.75;4960119;28;20046;-65
2022/03/16 10:52:09;;;;;;;21.35;9.27;;;;;;;15.52;63.52;97242.50;4971894;28;20046;-64
2022/03/16 10:54:36;;;;;;;20.13;8.27;;;;;;;15.08;64.22;97246.97;4977610;28;20137;-65
2022/03/16 10:57:04;;;;;;;22.17;8.70;;;;;;;15.01;65.74;97247.69;4975070;28;20039;-62
2022/03/16 10:59:31;;;;;;;23.40;10.38;;;;;;;14.96;66.32;97242.53;4966161;28;20053;-63
2022/03/16 11:02:12;;;;;;;15.88;7.43;;;;;;;14.27;68.61;97245.81;4964948;28;20084;-64
2022/03/16 11:04:38;;;;;;;20.40;7.75;;;;;;;14.34;68.04;97246.69;4966113;28;20053;-64
2022/03/16 11:07:05;;;;;;;16.23;8.30;;;;;;;14.30;68.62;97247.81;4968027;28;20065;-70
2022/03/16 11:09:31;;;;;;;17.80;8.35;;;;;;;14.32;67.86;97254.53;4973909;28;20049;-66
2022/03/16 11:14:44;;;;;;;18.95;7.55;;;;;;;14.36;67.83;97246.31;4971056;28;20489;-67
2022/03/16 11:17:10;;;;;;;18.42;6.80;;;;;;;13.69;69.74;97241.63;4959644;28;20490;-68
2022/03/16 11:19:37;;;;;;;15.73;7.40;;;;;;;13.81;70.17;97235.88;4966623;28;20046;-65
2022/03/16 11:22:03;;;;;;;14.48;7.95;;;;;;;13.67;71.57;97246.69;4962039;28;20038;-71
2022/03/16 11:24:33;;;;;;;15.35;7.85;;;;;;;14.00;71.21;97236.88;4961431;28;20046;-64
2022/03/16 11:27:40;;;;;;;15.00;7.63;;;;;;;14.13;72.21;97227.16;4973711;28;20034;-64
2022/03/16 11:30:29;;;;;;;17.80;8.13;;;;;;;13.89;72.45;97222.97;4978882;28;20101;-66